sensor_id;sensor_type;location;lat;lon;timestamp;temperature;humidity
67603;DHT22;54417;47.454;18.918;2023-04-25T00:05:01;11.26;81.75
67603;DHT22;54417;47.454;18.918;2023-04-25T00:10:11;11.28;82.08
67603;DHT22;54417;47.454;18.918;2023-04-25T00:15:21;11.19;81.76
67603;DHT22;54417;47.454;18.918;2023-04-25T00:20:25;11.24;81.52
67603;DHT22;54417;47.454;18.918;2023-04-25T00:25:33;11.25;81.58
67603;DHT22;54417;47.454;18.918;2023-04-25T00:30:44;11.22;81.88
67603;DHT22;54417;47.454;18.918;2023-04-25T00:35:53;11.14;82.05
67603;DHT22;54417;47.454;18.918;2023-04-25T00:41:01;11.19;82.30
67603;DHT22;54417;47.454;18.918;2023-04-25T00:46:11;11.05;82.73
67603;DHT22;54417;47.454;18.918;2023-04-25T00:51:21;11.04;83.07
67603;DHT22;54417;47.454;18.918;2023-04-25T00:56:30;10.93;83.50
67603;DHT22;54417;47.454;18.918;2023-04-25T01:01:41;10.87;83.57
67603;DHT22;54417;47.454;18.918;2023-04-25T01:06:51;10.80;83.66
67603;DHT22;54417;47.454;18.918;2023-04-25T01:12:00;10.80;83.57
67603;DHT22;54417;47.454;18.918;2023-04-25T01:17:12;10.83;83.24
67603;DHT22;54417;47.454;18.918;2023-04-25T01:22:17;10.88;82.89
67603;DHT22;54417;47.454;18.918;2023-04-25T01:27:21;10.90;82.45
67603;DHT22;54417;47.454;18.918;2023-04-25T01:32:26;10.97;81.47
67603;DHT22;54417;47.454;18.918;2023-04-25T01:37:32;11.01;81.01
67603;DHT22;54417;47.454;18.918;2023-04-25T01:42:42;11.01;80.13
67603;DHT22;54417;47.454;18.918;2023-04-25T01:47:51;11.01;80.10
67603;DHT22;54417;47.454;18.918;2023-04-25T01:53:02;10.95;79.93
67603;DHT22;54417;47.454;18.918;2023-04-25T01:58:05;10.93;79.69
67603;DHT22;54417;47.454;18.918;2023-04-25T02:03:31;10.94;79.35
67603;DHT22;54417;47.454;18.918;2023-04-25T02:08:38;10.91;79.06
67603;DHT22;54417;47.454;18.918;2023-04-25T02:13:47;10.91;79.10
67603;DHT22;54417;47.454;18.918;2023-04-25T02:19:07;10.84;79.28
67603;DHT22;54417;47.454;18.918;2023-04-25T02:24:18;10.80;79.12
67603;DHT22;54417;47.454;18.918;2023-04-25T02:29:27;10.80;78.69
67603;DHT22;54417;47.454;18.918;2023-04-25T02:34:36;10.80;78.43
67603;DHT22;54417;47.454;18.918;2023-04-25T02:39:41;10.77;78.74
67603;DHT22;54417;47.454;18.918;2023-04-25T02:44:50;10.68;78.88
67603;DHT22;54417;47.454;18.918;2023-04-25T02:49:53;10.63;78.61
67603;DHT22;54417;47.454;18.918;2023-04-25T02:54:58;10.60;78.61
67603;DHT22;54417;47.454;18.918;2023-04-25T03:00:09;10.56;78.55
67603;DHT22;54417;47.454;18.918;2023-04-25T03:05:21;10.50;78.58
67603;DHT22;54417;47.454;18.918;2023-04-25T03:10:27;10.43;78.84
67603;DHT22;54417;47.454;18.918;2023-04-25T03:15:34;10.39;79.01
67603;DHT22;54417;47.454;18.918;2023-04-25T03:20:44;10.26;79.17
67603;DHT22;54417;47.454;18.918;2023-04-25T03:25:54;10.19;79.51
67603;DHT22;54417;47.454;18.918;2023-04-25T03:31:03;10.12;79.76
67603;DHT22;54417;47.454;18.918;2023-04-25T03:36:07;10.08;79.98
67603;DHT22;54417;47.454;18.918;2023-04-25T03:41:18;10.05;80.33
67603;DHT22;54417;47.454;18.918;2023-04-25T03:46:32;10.01;80.73
67603;DHT22;54417;47.454;18.918;2023-04-25T03:51:41;9.96;80.89
67603;DHT22;54417;47.454;18.918;2023-04-25T03:56:46;9.91;81.41
67603;DHT22;54417;47.454;18.918;2023-04-25T04:01:59;9.87;81.42
67603;DHT22;54417;47.454;18.918;2023-04-25T04:07:09;9.84;81.86
67603;DHT22;54417;47.454;18.918;2023-04-25T04:12:23;9.79;82.15
67603;DHT22;54417;47.454;18.918;2023-04-25T04:17:32;9.77;82.59
67603;DHT22;54417;47.454;18.918;2023-04-25T04:22:42;9.71;82.82
67603;DHT22;54417;47.454;18.918;2023-04-25T04:27:54;9.55;84.19
67603;DHT22;54417;47.454;18.918;2023-04-25T04:33:10;9.40;85.11
67603;DHT22;54417;47.454;18.918;2023-04-25T04:38:20;9.24;85.66
67603;DHT22;54417;47.454;18.918;2023-04-25T04:43:32;9.06;87.44
67603;DHT22;54417;47.454;18.918;2023-04-25T04:48:54;8.96;88.08
67603;DHT22;54417;47.454;18.918;2023-04-25T04:54:37;8.78;88.80
67603;DHT22;54417;47.454;18.918;2023-04-25T05:00:05;8.67;90.15
67603;DHT22;54417;47.454;18.918;2023-04-25T05:05:31;8.60;90.46
67603;DHT22;54417;47.454;18.918;2023-04-25T05:11:03;8.42;91.49
67603;DHT22;54417;47.454;18.918;2023-04-25T05:16:31;8.37;91.84
67603;DHT22;54417;47.454;18.918;2023-04-25T05:21:52;8.33;93.26
67603;DHT22;54417;47.454;18.918;2023-04-25T05:27:15;8.30;93.03
67603;DHT22;54417;47.454;18.918;2023-04-25T05:32:41;8.26;93.11
67603;DHT22;54417;47.454;18.918;2023-04-25T05:37:50;8.30;93.85
67603;DHT22;54417;47.454;18.918;2023-04-25T05:43:07;8.33;93.10
67603;DHT22;54417;47.454;18.918;2023-04-25T05:48:43;8.40;93.27
67603;DHT22;54417;47.454;18.918;2023-04-25T05:54:11;8.50;93.42
67603;DHT22;54417;47.454;18.918;2023-04-25T05:59:20;8.75;93.14
67603;DHT22;54417;47.454;18.918;2023-04-25T06:04:31;9.00;92.85
67603;DHT22;54417;47.454;18.918;2023-04-25T06:09:36;9.05;92.10
67603;DHT22;54417;47.454;18.918;2023-04-25T06:14:46;9.09;90.79
67603;DHT22;54417;47.454;18.918;2023-04-25T06:19:59;9.19;89.89
67603;DHT22;54417;47.454;18.918;2023-04-25T06:25:08;9.36;88.92
67603;DHT22;54417;47.454;18.918;2023-04-25T06:30:18;9.60;88.16
67603;DHT22;54417;47.454;18.918;2023-04-25T06:35:29;9.89;87.55
67603;DHT22;54417;47.454;18.918;2023-04-25T06:40:38;9.96;85.32
67603;DHT22;54417;47.454;18.918;2023-04-25T06:45:49;10.19;85.42
67603;DHT22;54417;47.454;18.918;2023-04-25T06:51:00;10.37;85.53
67603;DHT22;54417;47.454;18.918;2023-04-25T06:56:09;10.54;85.32
67603;DHT22;54417;47.454;18.918;2023-04-25T07:01:25;10.80;83.54
67603;DHT22;54417;47.454;18.918;2023-04-25T07:06:35;11.16;83.04
67603;DHT22;54417;47.454;18.918;2023-04-25T07:11:45;11.65;82.24
67603;DHT22;54417;47.454;18.918;2023-04-25T07:16:54;12.13;80.85
67603;DHT22;54417;47.454;18.918;2023-04-25T07:22:02;12.17;79.98
67603;DHT22;54417;47.454;18.918;2023-04-25T07:27:12;11.81;80.11
67603;DHT22;54417;47.454;18.918;2023-04-25T07:32:31;12.16;79.22
67603;DHT22;54417;47.454;18.918;2023-04-25T07:37:41;12.21;79.53
67603;DHT22;54417;47.454;18.918;2023-04-25T07:42:49;12.11;78.15
67603;DHT22;54417;47.454;18.918;2023-04-25T07:48:04;12.13;77.76
67603;DHT22;54417;47.454;18.918;2023-04-25T07:53:17;12.48;79.20
67603;DHT22;54417;47.454;18.918;2023-04-25T07:58:33;12.52;76.37
67603;DHT22;54417;47.454;18.918;2023-04-25T08:03:39;12.75;75.97
67603;DHT22;54417;47.454;18.918;2023-04-25T08:08:57;12.59;75.69
67603;DHT22;54417;47.454;18.918;2023-04-25T08:14:08;12.65;76.85
67603;DHT22;54417;47.454;18.918;2023-04-25T08:19:13;13.02;76.89
67603;DHT22;54417;47.454;18.918;2023-04-25T08:24:24;12.68;75.57
67603;DHT22;54417;47.454;18.918;2023-04-25T08:29:28;12.65;75.69
67603;DHT22;54417;47.454;18.918;2023-04-25T08:34:37;12.63;74.96
67603;DHT22;54417;47.454;18.918;2023-04-25T08:39:50;12.75;76.74
67603;DHT22;54417;47.454;18.918;2023-04-25T08:45:00;12.70;75.85
67603;DHT22;54417;47.454;18.918;2023-04-25T08:50:16;12.32;75.48
67603;DHT22;54417;47.454;18.918;2023-04-25T08:55:28;12.58;75.27
67603;DHT22;54417;47.454;18.918;2023-04-25T09:00:34;12.58;75.69
67603;DHT22;54417;47.454;18.918;2023-04-25T09:05:43;13.26;75.75
67603;DHT22;54417;47.454;18.918;2023-04-25T09:10:56;13.17;75.08
67603;DHT22;54417;47.454;18.918;2023-04-25T09:16:05;12.99;73.49
67603;DHT22;54417;47.454;18.918;2023-04-25T09:21:34;13.18;74.04
67603;DHT22;54417;47.454;18.918;2023-04-25T09:26:45;13.17;72.63
67603;DHT22;54417;47.454;18.918;2023-04-25T09:32:10;13.17;73.20
67603;DHT22;54417;47.454;18.918;2023-04-25T09:37:19;13.47;72.38
67603;DHT22;54417;47.454;18.918;2023-04-25T09:42:49;13.96;70.40
67603;DHT22;54417;47.454;18.918;2023-04-25T09:48:03;14.08;69.33
67603;DHT22;54417;47.454;18.918;2023-04-25T09:53:17;14.37;68.32
67603;DHT22;54417;47.454;18.918;2023-04-25T09:58:40;13.78;68.44
67603;DHT22;54417;47.454;18.918;2023-04-25T10:03:50;13.65;67.91
67603;DHT22;54417;47.454;18.918;2023-04-25T10:09:24;13.69;68.49
67603;DHT22;54417;47.454;18.918;2023-04-25T10:14:31;13.90;66.99
67603;DHT22;54417;47.454;18.918;2023-04-25T10:19:35;13.92;67.11
67603;DHT22;54417;47.454;18.918;2023-04-25T10:24:44;14.26;66.38
67603;DHT22;54417;47.454;18.918;2023-04-25T10:30:02;14.59;65.00
67603;DHT22;54417;47.454;18.918;2023-04-25T10:35:13;14.37;64.15
67603;DHT22;54417;47.454;18.918;2023-04-25T10:40:21;14.34;62.46
67603;DHT22;54417;47.454;18.918;2023-04-25T10:45:27;14.47;62.54
67603;DHT22;54417;47.454;18.918;2023-04-25T10:50:37;14.59;60.93
67603;DHT22;54417;47.454;18.918;2023-04-25T10:55:49;15.12;65.21
67603;DHT22;54417;47.454;18.918;2023-04-25T11:00:55;15.28;58.39
67603;DHT22;54417;47.454;18.918;2023-04-25T11:06:05;15.71;55.10
67603;DHT22;54417;47.454;18.918;2023-04-25T11:11:10;15.22;56.31
67603;DHT22;54417;47.454;18.918;2023-04-25T11:16:16;14.99;57.13
67603;DHT22;54417;47.454;18.918;2023-04-25T11:21:30;15.36;57.66
67603;DHT22;54417;47.454;18.918;2023-04-25T11:26:34;15.05;55.78
67603;DHT22;54417;47.454;18.918;2023-04-25T11:31:44;14.84;55.88
67603;DHT22;54417;47.454;18.918;2023-04-25T11:36:53;15.19;54.59
67603;DHT22;54417;47.454;18.918;2023-04-25T11:42:04;15.35;56.33
67603;DHT22;54417;47.454;18.918;2023-04-25T11:47:31;15.51;55.01
67603;DHT22;54417;47.454;18.918;2023-04-25T11:52:37;15.83;55.00
67603;DHT22;54417;47.454;18.918;2023-04-25T11:57:42;16.77;54.06
67603;DHT22;54417;47.454;18.918;2023-04-25T12:02:54;16.60;53.21
67603;DHT22;54417;47.454;18.918;2023-04-25T12:08:11;16.57;50.66
67603;DHT22;54417;47.454;18.918;2023-04-25T12:13:22;16.46;52.33
67603;DHT22;54417;47.454;18.918;2023-04-25T12:18:28;16.11;49.78
67603;DHT22;54417;47.454;18.918;2023-04-25T12:23:32;16.39;51.38
67603;DHT22;54417;47.454;18.918;2023-04-25T12:28:36;16.49;49.93
67603;DHT22;54417;47.454;18.918;2023-04-25T12:33:46;16.14;50.86
67603;DHT22;54417;47.454;18.918;2023-04-25T12:38:50;16.60;50.93
67603;DHT22;54417;47.454;18.918;2023-04-25T12:43:54;16.30;52.61
67603;DHT22;54417;47.454;18.918;2023-04-25T12:48:59;15.80;47.45
67603;DHT22;54417;47.454;18.918;2023-04-25T12:54:23;15.22;50.72
67603;DHT22;54417;47.454;18.918;2023-04-25T12:59:33;15.90;49.82
67603;DHT22;54417;47.454;18.918;2023-04-25T13:04:43;15.90;49.49
67603;DHT22;54417;47.454;18.918;2023-04-25T13:09:52;16.11;48.83
67603;DHT22;54417;47.454;18.918;2023-04-25T13:15:01;16.15;49.29
67603;DHT22;54417;47.454;18.918;2023-04-25T13:20:08;16.21;49.11
67603;DHT22;54417;47.454;18.918;2023-04-25T13:25:17;16.12;48.00
67603;DHT22;54417;47.454;18.918;2023-04-25T13:30:21;15.90;48.19
67603;DHT22;54417;47.454;18.918;2023-04-25T13:35:31;15.76;49.77
67603;DHT22;54417;47.454;18.918;2023-04-25T13:40:35;15.35;49.29
67603;DHT22;54417;47.454;18.918;2023-04-25T13:45:39;15.49;50.00
67603;DHT22;54417;47.454;18.918;2023-04-25T13:50:44;15.64;48.03
67603;DHT22;54417;47.454;18.918;2023-04-25T13:55:48;15.57;48.95
67603;DHT22;54417;47.454;18.918;2023-04-25T14:00:53;15.38;49.27
67603;DHT22;54417;47.454;18.918;2023-04-25T14:06:03;15.08;48.49
67603;DHT22;54417;47.454;18.918;2023-04-25T14:11:12;15.42;48.54
67603;DHT22;54417;47.454;18.918;2023-04-25T14:16:21;15.77;48.66
67603;DHT22;54417;47.454;18.918;2023-04-25T14:21:27;16.18;48.72
67603;DHT22;54417;47.454;18.918;2023-04-25T14:26:35;15.84;49.81
67603;DHT22;54417;47.454;18.918;2023-04-25T14:31:44;15.20;49.92
67603;DHT22;54417;47.454;18.918;2023-04-25T14:36:55;15.19;51.05
67603;DHT22;54417;47.454;18.918;2023-04-25T14:42:04;14.74;51.72
67603;DHT22;54417;47.454;18.918;2023-04-25T14:47:08;14.57;50.96
67603;DHT22;54417;47.454;18.918;2023-04-25T14:52:18;14.95;51.25
67603;DHT22;54417;47.454;18.918;2023-04-25T14:57:27;14.70;50.99
67603;DHT22;54417;47.454;18.918;2023-04-25T15:02:31;14.87;51.72
67603;DHT22;54417;47.454;18.918;2023-04-25T15:07:41;15.18;52.07
67603;DHT22;54417;47.454;18.918;2023-04-25T15:12:45;15.93;51.02
67603;DHT22;54417;47.454;18.918;2023-04-25T15:17:55;15.42;51.02
67603;DHT22;54417;47.454;18.918;2023-04-25T15:23:07;14.95;50.95
67603;DHT22;54417;47.454;18.918;2023-04-25T15:28:16;14.72;52.10
67603;DHT22;54417;47.454;18.918;2023-04-25T15:33:24;14.48;52.88
67603;DHT22;54417;47.454;18.918;2023-04-25T15:38:30;14.09;52.65
67603;DHT22;54417;47.454;18.918;2023-04-25T15:43:39;13.71;59.66
67603;DHT22;54417;47.454;18.918;2023-04-25T15:48:43;13.54;60.29
67603;DHT22;54417;47.454;18.918;2023-04-25T15:53:53;13.28;60.66
67603;DHT22;54417;47.454;18.918;2023-04-25T15:59:02;13.18;60.69
67603;DHT22;54417;47.454;18.918;2023-04-25T16:04:11;13.20;61.50
67603;DHT22;54417;47.454;18.918;2023-04-25T16:09:22;13.27;61.32
67603;DHT22;54417;47.454;18.918;2023-04-25T16:14:31;13.30;61.37
67603;DHT22;54417;47.454;18.918;2023-04-25T16:19:35;13.34;61.23
67603;DHT22;54417;47.454;18.918;2023-04-25T16:24:45;14.13;59.95
67603;DHT22;54417;47.454;18.918;2023-04-25T16:29:54;14.56;58.19
67603;DHT22;54417;47.454;18.918;2023-04-25T16:35:03;13.69;60.58
67603;DHT22;54417;47.454;18.918;2023-04-25T16:40:14;13.24;62.93
67603;DHT22;54417;47.454;18.918;2023-04-25T16:45:22;12.90;63.84
67603;DHT22;54417;47.454;18.918;2023-04-25T16:50:27;12.83;63.68
67603;DHT22;54417;47.454;18.918;2023-04-25T16:55:32;12.79;63.46
67603;DHT22;54417;47.454;18.918;2023-04-25T17:00:36;12.68;63.33
67603;DHT22;54417;47.454;18.918;2023-04-25T17:05:49;12.53;63.98
67603;DHT22;54417;47.454;18.918;2023-04-25T17:10:59;12.44;64.53
67603;DHT22;54417;47.454;18.918;2023-04-25T17:16:08;12.38;65.52
67603;DHT22;54417;47.454;18.918;2023-04-25T17:21:13;12.20;66.04
67603;DHT22;54417;47.454;18.918;2023-04-25T17:26:18;12.00;67.19
67603;DHT22;54417;47.454;18.918;2023-04-25T17:31:27;11.83;67.70
67603;DHT22;54417;47.454;18.918;2023-04-25T17:36:36;11.62;69.13
67603;DHT22;54417;47.454;18.918;2023-04-25T17:41:47;11.53;69.22
67603;DHT22;54417;47.454;18.918;2023-04-25T17:46:51;11.32;70.27
67603;DHT22;54417;47.454;18.918;2023-04-25T17:51:57;11.04;71.50
67603;DHT22;54417;47.454;18.918;2023-04-25T17:57:03;10.83;72.38
67603;DHT22;54417;47.454;18.918;2023-04-25T18:02:11;10.61;73.38
67603;DHT22;54417;47.454;18.918;2023-04-25T18:07:20;10.42;74.31
67603;DHT22;54417;47.454;18.918;2023-04-25T18:12:31;10.39;75.14
67603;DHT22;54417;47.454;18.918;2023-04-25T18:17:40;10.42;75.21
67603;DHT22;54417;47.454;18.918;2023-04-25T18:22:49;10.46;75.45
67603;DHT22;54417;47.454;18.918;2023-04-25T18:27:59;10.37;75.57
67603;DHT22;54417;47.454;18.918;2023-04-25T18:33:08;10.28;75.97
67603;DHT22;54417;47.454;18.918;2023-04-25T18:38:12;10.35;74.96
67603;DHT22;54417;47.454;18.918;2023-04-25T18:43:29;10.28;74.84
67603;DHT22;54417;47.454;18.918;2023-04-25T18:48:33;10.28;74.25
67603;DHT22;54417;47.454;18.918;2023-04-25T18:53:37;10.15;74.81
67603;DHT22;54417;47.454;18.918;2023-04-25T18:58:47;10.05;75.74
67603;DHT22;54417;47.454;18.918;2023-04-25T19:03:57;10.08;75.68
67603;DHT22;54417;47.454;18.918;2023-04-25T19:09:10;10.17;75.09
67603;DHT22;54417;47.454;18.918;2023-04-25T19:14:16;10.12;75.00
67603;DHT22;54417;47.454;18.918;2023-04-25T19:19:25;10.17;74.72
67603;DHT22;54417;47.454;18.918;2023-04-25T19:24:33;10.03;75.22
67603;DHT22;54417;47.454;18.918;2023-04-25T19:29:43;9.84;76.22
67603;DHT22;54417;47.454;18.918;2023-04-25T19:34:54;9.77;76.25
67603;DHT22;54417;47.454;18.918;2023-04-25T19:39:58;9.77;75.70
67603;DHT22;54417;47.454;18.918;2023-04-25T19:45:04;9.65;76.06
67603;DHT22;54417;47.454;18.918;2023-04-25T19:50:13;9.57;76.81
67603;DHT22;54417;47.454;18.918;2023-04-25T19:55:22;9.46;77.38
67603;DHT22;54417;47.454;18.918;2023-04-25T20:00:33;9.30;78.14
67603;DHT22;54417;47.454;18.918;2023-04-25T20:05:36;9.19;78.42
67603;DHT22;54417;47.454;18.918;2023-04-25T20:10:45;9.18;78.56
67603;DHT22;54417;47.454;18.918;2023-04-25T20:15:57;9.24;78.22
67603;DHT22;54417;47.454;18.918;2023-04-25T20:21:09;9.22;78.34
67603;DHT22;54417;47.454;18.918;2023-04-25T20:26:17;9.08;78.70
67603;DHT22;54417;47.454;18.918;2023-04-25T20:31:30;8.92;79.38
67603;DHT22;54417;47.454;18.918;2023-04-25T20:36:40;8.82;79.76
67603;DHT22;54417;47.454;18.918;2023-04-25T20:41:44;8.67;80.15
67603;DHT22;54417;47.454;18.918;2023-04-25T20:46:54;8.52;80.57
67603;DHT22;54417;47.454;18.918;2023-04-25T20:51:58;8.42;80.74
67603;DHT22;54417;47.454;18.918;2023-04-25T20:57:04;8.45;80.66
67603;DHT22;54417;47.454;18.918;2023-04-25T21:02:14;8.33;80.82
67603;DHT22;54417;47.454;18.918;2023-04-25T21:07:23;8.40;80.69
67603;DHT22;54417;47.454;18.918;2023-04-25T21:12:33;8.44;80.52
67603;DHT22;54417;47.454;18.918;2023-04-25T21:17:43;8.33;80.70
67603;DHT22;54417;47.454;18.918;2023-04-25T21:22:54;8.54;80.55
67603;DHT22;54417;47.454;18.918;2023-04-25T21:28:05;8.48;80.72
67603;DHT22;54417;47.454;18.918;2023-04-25T21:33:10;8.50;80.59
67603;DHT22;54417;47.454;18.918;2023-04-25T21:38:15;8.51;80.70
67603;DHT22;54417;47.454;18.918;2023-04-25T21:43:19;8.38;80.92
67603;DHT22;54417;47.454;18.918;2023-04-25T21:48:32;7.92;82.42
67603;DHT22;54417;47.454;18.918;2023-04-25T21:53:41;7.89;82.56
67603;DHT22;54417;47.454;18.918;2023-04-25T21:58:50;7.76;82.73
67603;DHT22;54417;47.454;18.918;2023-04-25T22:03:56;7.68;83.28
67603;DHT22;54417;47.454;18.918;2023-04-25T22:09:05;7.50;83.88
67603;DHT22;54417;47.454;18.918;2023-04-25T22:14:09;7.28;84.83
67603;DHT22;54417;47.454;18.918;2023-04-25T22:19:19;7.11;85.17
67603;DHT22;54417;47.454;18.918;2023-04-25T22:24:28;7.06;85.43
67603;DHT22;54417;47.454;18.918;2023-04-25T22:29:37;7.13;85.83
67603;DHT22;54417;47.454;18.918;2023-04-25T22:34:43;7.28;85.13
67603;DHT22;54417;47.454;18.918;2023-04-25T22:39:51;7.32;84.96
67603;DHT22;54417;47.454;18.918;2023-04-25T22:45:00;7.11;85.52
67603;DHT22;54417;47.454;18.918;2023-04-25T22:50:10;6.89;86.07
67603;DHT22;54417;47.454;18.918;2023-04-25T22:55:23;6.89;86.39
67603;DHT22;54417;47.454;18.918;2023-04-25T23:00:28;6.87;86.87
67603;DHT22;54417;47.454;18.918;2023-04-25T23:05:38;6.94;86.56
67603;DHT22;54417;47.454;18.918;2023-04-25T23:10:42;7.03;86.33
67603;DHT22;54417;47.454;18.918;2023-04-25T23:15:50;7.14;85.79
67603;DHT22;54417;47.454;18.918;2023-04-25T23:21:01;7.04;86.19
67603;DHT22;54417;47.454;18.918;2023-04-25T23:26:06;7.00;86.18
67603;DHT22;54417;47.454;18.918;2023-04-25T23:31:15;7.08;86.16
67603;DHT22;54417;47.454;18.918;2023-04-25T23:36:25;7.13;86.09
67603;DHT22;54417;47.454;18.918;2023-04-25T23:41:29;7.23;85.85
67603;DHT22;54417;47.454;18.918;2023-04-25T23:46:38;7.35;85.53
67603;DHT22;54417;47.454;18.918;2023-04-25T23:51:44;7.50;85.29
67603;DHT22;54417;47.454;18.918;2023-04-25T23:56:48;7.66;84.44
